createdAt,value
2019-04-27T00:02:05.743Z,53.23
2019-04-27T00:04:35.736Z,52.88
2019-04-27T00:07:05.975Z,54.09
2019-04-27T00:09:50.124Z,52.75
2019-04-27T00:12:16.489Z,53.04
2019-04-27T00:14:48.305Z,53.21
2019-04-27T00:17:45.199Z,53.15
2019-04-27T00:20:15.402Z,51.72
2019-04-27T00:22:45.366Z,51.36
2019-04-27T00:25:13.611Z,51.26
2019-04-27T00:27:43.539Z,52.26
2019-04-27T00:30:13.862Z,51.79
2019-04-27T00:32:43.311Z,50.25
2019-04-27T00:35:14.626Z,49.90
2019-04-27T00:37:50.470Z,51.04
2019-04-27T00:40:23.565Z,49.58
2019-04-27T00:42:53.761Z,51.12
2019-04-27T00:45:23.426Z,50.51
2019-04-27T00:47:59.108Z,48.93
2019-04-27T00:50:23.452Z,48.37
2019-04-27T00:52:53.217Z,49.87
2019-04-27T00:55:23.422Z,49.27
2019-04-27T00:57:53.682Z,47.83
2019-04-27T01:00:26.468Z,50.33
2019-04-27T01:02:56.367Z,49.42
2019-04-27T01:05:26.266Z,49.57
2019-04-27T01:07:54.525Z,48.83
2019-04-27T01:10:23.404Z,48.54
2019-04-27T01:12:53.112Z,49.36
2019-04-27T01:15:23.794Z,48.47
2019-04-27T01:17:52.054Z,51.53
2019-04-27T01:20:20.328Z,48.26
2019-04-27T01:22:49.253Z,47.17
2019-04-27T01:25:18.881Z,49.21
2019-04-27T01:27:59.554Z,52.09
2019-04-27T01:30:32.356Z,50.42
2019-04-27T01:33:00.612Z,48.68
2019-04-27T01:35:28.929Z,50.86
2019-04-27T01:37:58.827Z,49.81
2019-04-27T01:40:27.201Z,47.95
2019-04-27T01:42:55.460Z,48.19
2019-04-27T01:45:23.736Z,50.21
2019-04-27T01:47:51.995Z,50.21
2019-04-27T01:50:20.240Z,48.30
2019-04-27T01:52:48.729Z,48.89
2019-04-27T01:55:18.748Z,51.76
2019-04-27T01:57:48.651Z,51.13
2019-04-27T02:00:52.473Z,52.91
2019-04-27T02:03:40.711Z,49.78
2019-04-27T02:06:09.240Z,52.47
2019-04-27T02:08:37.511Z,49.43
2019-04-27T02:11:05.763Z,51.10
2019-04-27T02:13:34.042Z,51.54
2019-04-27T02:16:02.312Z,51.49
2019-04-27T02:18:37.508Z,50.15
2019-04-27T02:21:01.065Z,52.55
2019-04-27T02:23:29.453Z,51.54
2019-04-27T02:25:58.606Z,51.65
2019-04-27T02:28:32.181Z,50.96
2019-04-27T02:31:20.311Z,48.02
2019-04-27T02:34:05.433Z,49.96
2019-04-27T02:36:33.691Z,49.18
2019-04-27T02:39:01.973Z,50.23
2019-04-27T02:41:30.232Z,51.16
2019-04-27T02:44:01.769Z,51.91
2019-04-27T02:46:31.514Z,51.23
2019-04-27T02:49:05.739Z,53.13
2019-04-27T02:51:49.529Z,52.37
2019-04-27T02:54:20.211Z,51.45
2019-04-27T02:56:50.031Z,48.20
2019-04-27T02:59:19.854Z,52.62
2019-04-27T03:01:53.539Z,50.89
2019-04-27T03:04:21.973Z,48.95
2019-04-27T03:06:50.233Z,54.00
2019-04-27T03:09:20.436Z,55.39
2019-04-27T03:11:49.992Z,51.06
2019-04-27T03:14:29.440Z,50.26
2019-04-27T03:16:51.817Z,51.65
2019-04-27T03:19:40.181Z,50.81
2019-04-27T03:22:12.491Z,51.23
2019-04-27T03:25:00.062Z,50.58
2019-04-27T03:27:30.452Z,48.96
2019-04-27T03:29:59.687Z,51.32
2019-04-27T03:32:31.225Z,51.90
2019-04-27T03:35:02.143Z,51.61
2019-04-27T03:37:30.305Z,50.34
2019-04-27T03:40:00.146Z,48.41
2019-04-27T03:42:29.321Z,51.70
2019-04-27T03:45:00.338Z,51.22
2019-04-27T03:47:30.333Z,52.41
2019-04-27T03:49:59.881Z,51.07
2019-04-27T03:52:29.919Z,50.73
2019-04-27T03:55:12.750Z,52.84
2019-04-27T03:57:45.118Z,51.49
2019-04-27T04:00:19.899Z,51.34
2019-04-27T04:02:50.184Z,53.04
2019-04-27T04:05:19.805Z,53.78
2019-04-27T04:07:50.323Z,51.12
2019-04-27T04:10:19.775Z,54.45
2019-04-27T04:13:01.404Z,54.63
2019-04-27T04:15:33.666Z,51.97
2019-04-27T04:18:01.948Z,52.86
2019-04-27T04:20:30.613Z,52.86
2019-04-27T04:23:02.798Z,50.51
2019-04-27T04:25:30.233Z,52.23
2019-04-27T04:28:00.580Z,51.48
2019-04-27T04:30:30.309Z,51.75
2019-04-27T04:32:59.896Z,50.42
2019-04-27T04:35:32.470Z,49.32
2019-04-27T04:38:00.167Z,50.28
2019-04-27T04:40:40.062Z,51.98
2019-04-27T04:43:13.227Z,51.11
2019-04-27T04:45:59.694Z,53.01
2019-04-27T04:48:30.232Z,53.68
2019-04-27T04:50:59.995Z,53.29
2019-04-27T04:53:29.292Z,52.31
2019-04-27T04:55:57.677Z,50.22
2019-04-27T04:58:26.016Z,50.51
2019-04-27T05:00:54.266Z,51.18
2019-04-27T05:03:22.523Z,50.70
2019-04-27T05:05:50.854Z,51.81
2019-04-27T05:08:19.242Z,51.25
2019-04-27T05:10:49.495Z,50.76
2019-04-27T05:13:19.179Z,49.50
2019-04-27T05:15:48.680Z,50.58
2019-04-27T05:18:18.968Z,51.94
2019-04-27T05:20:48.745Z,51.89
2019-04-27T05:23:18.510Z,53.66
2019-04-27T05:25:49.037Z,53.54
2019-04-27T05:28:18.718Z,52.12
2019-04-27T05:30:48.703Z,52.06
2019-04-27T05:33:18.739Z,53.04
2019-04-27T05:35:49.163Z,50.43
2019-04-27T05:38:19.117Z,52.88
2019-04-27T05:40:47.284Z,52.53
2019-04-27T05:43:17.198Z,51.24
2019-04-27T05:46:02.100Z,51.25
2019-04-27T05:48:31.993Z,51.70
2019-04-27T05:51:01.913Z,51.76
2019-04-27T05:53:30.387Z,52.10
2019-04-27T05:55:59.445Z,50.32
2019-04-27T05:58:28.952Z,50.93
2019-04-27T06:00:59.299Z,48.75
2019-04-27T06:03:29.452Z,50.83
2019-04-27T06:05:59.390Z,50.88
2019-04-27T06:08:29.468Z,48.39
2019-04-27T06:10:59.242Z,46.81
2019-04-27T06:13:30.770Z,48.98
2019-04-27T06:15:59.258Z,49.48
2019-04-27T06:18:29.435Z,51.46
2019-04-27T06:20:59.639Z,48.93
2019-04-27T06:23:28.955Z,47.51
2019-04-27T06:25:57.396Z,49.74
2019-04-27T06:28:25.630Z,48.88
2019-04-27T06:30:53.908Z,49.10
2019-04-27T06:33:32.331Z,49.30
2019-04-27T06:35:52.156Z,47.59
2019-04-27T06:38:20.428Z,46.51
2019-04-27T06:40:49.045Z,47.34
2019-04-27T06:43:18.883Z,46.88
2019-04-27T06:45:48.828Z,47.27
2019-04-27T06:48:17.152Z,48.49
2019-04-27T06:50:45.418Z,46.72
2019-04-27T06:53:13.684Z,46.00
2019-04-27T06:55:42.023Z,45.48
2019-04-27T06:58:10.288Z,43.40
2019-04-27T07:00:39.504Z,47.16
2019-04-27T07:03:09.008Z,45.56
2019-04-27T07:05:38.828Z,47.94
2019-04-27T07:08:08.893Z,49.64
2019-04-27T07:10:39.047Z,48.27
2019-04-27T07:13:07.475Z,45.53
2019-04-27T07:15:35.741Z,47.00
2019-04-27T07:18:03.992Z,47.06
2019-04-27T07:20:32.255Z,47.82
2019-04-27T07:23:00.509Z,48.52
2019-04-27T07:25:28.957Z,46.35
2019-04-27T07:27:58.953Z,44.43
2019-04-27T07:30:28.731Z,48.60
2019-04-27T07:32:58.884Z,46.18
2019-04-27T07:35:27.134Z,47.47
2019-04-27T07:37:55.399Z,49.02
2019-04-27T07:40:23.653Z,48.56
2019-04-27T07:42:53.559Z,48.66
2019-04-27T07:45:32.240Z,48.98
2019-04-27T07:48:00.491Z,47.76
2019-04-27T07:50:29.082Z,48.52
2019-04-27T07:52:58.705Z,47.50
2019-04-27T07:57:49.349Z,45.50
2019-04-27T08:00:19.411Z,46.99
2019-04-27T08:02:48.640Z,50.17
2019-04-27T08:05:16.898Z,49.60
2019-04-27T08:07:45.228Z,47.34
2019-04-27T08:10:13.560Z,49.49
2019-04-27T08:12:41.832Z,49.41
2019-04-27T08:15:10.153Z,48.97
2019-04-27T08:17:40.587Z,50.27
2019-04-27T08:20:09.253Z,50.04
2019-04-27T08:22:38.905Z,51.03
2019-04-27T08:25:09.276Z,52.07
2019-04-27T08:27:51.262Z,51.20
2019-04-27T08:30:23.706Z,54.80
2019-04-27T08:32:53.655Z,56.39
2019-04-27T08:35:21.946Z,54.18
2019-04-27T08:37:50.229Z,54.89
2019-04-27T08:40:19.275Z,56.65
2019-04-27T08:42:49.176Z,55.87
2019-04-27T08:45:19.283Z,56.69
2019-04-27T08:47:49.804Z,57.61
2019-04-27T08:50:19.053Z,57.32
2019-04-27T08:52:47.411Z,57.38
2019-04-27T08:55:15.727Z,56.93
2019-04-27T08:57:44.074Z,56.07
2019-04-27T09:00:13.198Z,55.11
2019-04-27T09:02:46.825Z,55.51
2019-04-27T09:05:11.547Z,54.84
2019-04-27T09:07:44.134Z,54.92
2019-04-27T09:10:19.797Z,56.34
2019-04-27T09:12:55.425Z,55.74
2019-04-27T09:15:25.337Z,53.96
2019-04-27T09:17:58.886Z,55.70
2019-04-27T09:20:39.031Z,55.36
2019-04-27T09:23:09.826Z,56.55
2019-04-27T09:25:39.647Z,55.72
2019-04-27T09:28:08.760Z,54.66
2019-04-27T09:30:38.772Z,55.46
2019-04-27T09:33:07.172Z,56.91
2019-04-27T09:35:35.675Z,55.43
2019-04-27T09:38:03.890Z,54.23
2019-04-27T09:40:32.451Z,55.43
2019-04-27T09:43:00.703Z,54.99
2019-04-27T09:45:29.043Z,55.40
2019-04-27T09:47:57.395Z,55.92
2019-04-27T09:50:28.174Z,56.23
2019-04-27T09:52:55.884Z,53.77
2019-04-27T09:55:26.136Z,51.71
2019-04-27T09:57:54.123Z,52.39
2019-04-27T10:00:22.468Z,52.98
2019-04-27T10:02:50.726Z,56.26
2019-04-27T10:05:19.468Z,50.98
2019-04-27T10:07:47.798Z,53.52
2019-04-27T10:10:16.387Z,52.76
2019-04-27T10:12:46.518Z,53.94
2019-04-27T10:15:16.256Z,54.04
2019-04-27T10:17:47.765Z,52.45
2019-04-27T10:20:16.858Z,52.61
2019-04-27T10:22:46.392Z,52.85
2019-04-27T10:25:28.300Z,54.81
2019-04-27T10:27:59.296Z,52.56
2019-04-27T10:30:28.186Z,53.62
2019-04-27T10:32:56.510Z,52.90
2019-04-27T10:35:26.032Z,52.84
2019-04-27T10:37:54.325Z,53.60
2019-04-27T10:40:22.644Z,52.70
2019-04-27T10:42:50.920Z,53.08
2019-04-27T10:45:19.189Z,53.99
2019-04-27T10:47:49.505Z,52.97
2019-04-27T10:50:17.605Z,53.56
2019-04-27T10:52:53.406Z,55.06
2019-04-27T10:55:16.135Z,54.58
2019-04-27T10:57:44.406Z,56.06
2019-04-27T11:00:16.728Z,55.15
2019-04-27T11:02:45.157Z,54.59
2019-04-27T11:05:31.229Z,52.61
2019-04-27T11:08:00.559Z,53.75
2019-04-27T11:10:28.920Z,54.64
2019-04-27T11:12:57.250Z,52.55
2019-04-27T11:15:26.375Z,52.23
2019-04-27T11:17:56.109Z,51.80
2019-04-27T11:20:27.467Z,55.84
2019-04-27T11:23:06.641Z,55.23
2019-04-27T11:25:26.265Z,54.74
2019-04-27T11:27:57.545Z,55.21
2019-04-27T11:30:24.844Z,54.64
2019-04-27T11:32:56.686Z,53.33
2019-04-27T11:35:25.764Z,56.20
2019-04-27T11:37:55.816Z,53.03
2019-04-27T11:40:24.827Z,54.18
2019-04-27T11:42:53.105Z,56.76
2019-04-27T11:45:21.443Z,54.13
2019-04-27T11:47:49.738Z,58.00
2019-04-27T11:50:18.672Z,56.31
2019-04-27T11:52:46.927Z,56.10
2019-04-27T11:55:16.112Z,59.33
2019-04-27T11:57:44.394Z,57.47
2019-04-27T12:00:16.651Z,62.45
2019-04-27T12:02:45.723Z,62.60
2019-04-27T12:05:16.111Z,67.18
2019-04-27T12:07:47.521Z,67.16
2019-04-27T12:10:15.739Z,67.92
2019-04-27T12:12:46.179Z,60.29
2019-04-27T12:15:16.055Z,68.15
2019-04-27T12:17:46.088Z,67.99
2019-04-27T12:20:15.942Z,72.92
2019-04-27T12:22:44.769Z,69.88
2019-04-27T12:25:13.675Z,67.17
2019-04-27T12:27:52.526Z,68.81
2019-04-27T12:30:28.535Z,68.50
2019-04-27T12:32:56.776Z,66.18
2019-04-27T12:35:25.698Z,66.29
2019-04-27T12:37:55.829Z,68.49
2019-04-27T12:40:24.415Z,68.72
2019-04-27T12:42:52.768Z,67.51
2019-04-27T12:45:21.093Z,67.57
2019-04-27T12:47:49.418Z,65.49
2019-04-27T12:50:17.953Z,65.97
2019-04-27T12:52:47.860Z,65.79
2019-04-27T12:55:32.855Z,64.12
2019-04-27T12:58:18.590Z,64.33
2019-04-27T13:00:51.337Z,60.50
2019-04-27T13:03:19.612Z,56.16
2019-04-27T13:05:47.909Z,54.82
2019-04-27T13:08:16.271Z,58.45
2019-04-27T13:10:44.537Z,54.88
2019-04-27T13:13:12.799Z,57.86
2019-04-27T13:15:41.047Z,57.35
2019-04-27T13:18:09.479Z,56.84
2019-04-27T13:20:37.746Z,59.60
2019-04-27T13:23:07.299Z,64.57
2019-04-27T13:25:36.976Z,65.09
2019-04-27T13:28:05.808Z,64.02
2019-04-27T13:30:35.832Z,100.00
2019-04-27T13:33:04.520Z,72.29
2019-04-27T13:35:34.084Z,58.67
2019-04-27T13:38:02.523Z,44.02
2019-04-27T13:40:32.484Z,44.52
2019-04-27T13:43:18.235Z,99.31
2019-04-27T13:46:08.071Z,82.22
2019-04-27T13:48:55.952Z,85.87
2019-04-27T13:51:31.344Z,100.00
2019-04-27T13:53:59.685Z,100.00
2019-04-27T13:56:27.943Z,100.00
2019-04-27T13:58:58.347Z,100.00
2019-04-27T14:01:26.223Z,100.00
2019-04-27T14:03:54.455Z,100.00
2019-04-27T14:06:22.832Z,100.00
2019-04-27T14:08:51.093Z,100.00
2019-04-27T14:11:19.411Z,100.00
2019-04-27T14:13:48.476Z,100.00
2019-04-27T14:16:18.599Z,100.00
2019-04-27T14:18:48.116Z,100.00
2019-04-27T14:21:16.591Z,100.00
2019-04-27T14:23:44.951Z,100.00
2019-04-27T14:26:13.232Z,100.00
2019-04-27T14:28:41.504Z,100.00
2019-04-27T14:31:09.892Z,100.00
2019-04-27T14:33:39.724Z,100.00
2019-04-27T14:36:08.353Z,100.00
2019-04-27T14:38:36.588Z,100.00
2019-04-27T14:41:04.913Z,100.00
2019-04-27T14:43:33.182Z,100.00
2019-04-27T14:46:01.452Z,100.00
2019-04-27T14:48:29.718Z,100.00
2019-04-27T14:50:59.039Z,100.00
2019-04-27T14:53:28.213Z,100.00
2019-04-27T14:55:58.472Z,100.00
2019-04-27T14:58:28.302Z,100.00
2019-04-27T15:00:58.552Z,100.00
2019-04-27T15:03:26.797Z,100.00
2019-04-27T15:05:55.284Z,100.00
2019-04-27T15:08:25.162Z,100.00
2019-04-27T15:10:54.017Z,100.00
2019-04-27T15:13:22.274Z,100.00
2019-04-27T15:15:50.563Z,100.00
2019-04-27T15:18:19.747Z,100.00
2019-04-27T15:20:48.197Z,100.00
2019-04-27T15:23:16.476Z,100.00
2019-04-27T15:25:46.962Z,100.00
2019-04-27T15:28:16.480Z,100.00
2019-04-27T15:30:55.458Z,100.00
2019-04-27T15:33:46.677Z,100.00
2019-04-27T15:36:20.983Z,100.00
2019-04-27T15:38:55.547Z,100.00
2019-04-27T15:41:37.227Z,100.00
2019-04-27T15:44:09.457Z,100.00
2019-04-27T15:46:38.987Z,100.00
2019-04-27T15:49:10.439Z,100.00
2019-04-27T15:51:38.232Z,100.00
2019-04-27T15:54:06.852Z,100.00
2019-04-27T15:56:35.541Z,100.00
2019-04-27T15:59:05.493Z,100.00
2019-04-27T16:01:35.781Z,100.00
2019-04-27T16:04:09.487Z,100.00
2019-04-27T16:06:34.274Z,100.00
2019-04-27T16:09:02.541Z,100.00
2019-04-27T16:11:30.817Z,100.00
2019-04-27T16:14:03.019Z,100.00
2019-04-27T16:16:33.369Z,100.00
2019-04-27T16:18:59.550Z,100.00
2019-04-27T16:21:31.537Z,100.00
2019-04-27T16:23:59.245Z,100.00
2019-04-27T16:26:28.509Z,100.00
2019-04-27T16:28:58.077Z,100.00
2019-04-27T16:31:31.398Z,100.00
2019-04-27T16:33:59.123Z,100.00
2019-04-27T16:36:26.454Z,100.00
2019-04-27T16:38:56.356Z,100.00
2019-04-27T16:41:24.633Z,100.00
2019-04-27T16:43:52.957Z,100.00
2019-04-27T16:46:21.527Z,100.00
2019-04-27T16:48:49.986Z,100.00
2019-04-27T16:51:18.504Z,100.00
2019-04-27T16:53:46.938Z,100.00
2019-04-27T16:56:18.277Z,100.00
2019-04-27T16:58:51.066Z,100.00
2019-04-27T17:01:23.000Z,100.00
2019-04-27T17:03:51.316Z,100.00
2019-04-27T17:06:21.372Z,100.00
2019-04-27T17:08:49.813Z,100.00
2019-04-27T17:11:19.508Z,100.00
2019-04-27T17:13:59.026Z,100.00
2019-04-27T17:16:33.995Z,100.00
2019-04-27T17:19:21.870Z,100.00
2019-04-27T17:21:50.141Z,100.00
2019-04-27T17:24:42.072Z,100.00
2019-04-27T17:27:05.133Z,100.00
2019-04-27T17:29:35.038Z,100.00
2019-04-27T17:32:03.656Z,100.00
2019-04-27T17:34:31.917Z,100.00
2019-04-27T17:37:00.221Z,100.00
2019-04-27T17:39:29.855Z,100.00
2019-04-27T17:41:58.541Z,100.00
2019-04-27T17:44:28.669Z,100.00
2019-04-27T17:46:57.147Z,100.00
2019-04-27T17:49:25.411Z,100.00
2019-04-27T17:51:53.706Z,100.00
2019-04-27T17:54:22.004Z,100.00
2019-04-27T17:56:52.387Z,100.00
2019-04-27T17:59:20.987Z,100.00
2019-04-27T18:01:49.803Z,100.00
2019-04-27T18:04:18.605Z,100.00
2019-04-27T18:06:48.410Z,100.00
2019-04-27T18:09:18.755Z,100.00
2019-04-27T18:11:49.958Z,100.00
2019-04-27T18:14:19.059Z,100.00
2019-04-27T18:16:48.231Z,100.00
2019-04-27T18:19:18.516Z,100.00
2019-04-27T18:22:00.505Z,100.00
2019-04-27T18:24:29.152Z,100.00
2019-04-27T18:27:02.974Z,100.00
2019-04-27T18:29:30.856Z,100.00
2019-04-27T18:31:59.106Z,100.00
2019-04-27T18:34:28.603Z,100.00
2019-04-27T18:36:57.137Z,100.00
2019-04-27T18:39:25.415Z,100.00
2019-04-27T18:41:54.405Z,100.00
2019-04-27T18:44:23.936Z,100.00
2019-04-27T18:46:53.771Z,100.00
2019-04-27T18:49:27.261Z,100.00
2019-04-27T18:52:11.009Z,100.00
2019-04-27T18:54:41.903Z,100.00
2019-04-27T18:57:10.927Z,100.00
2019-04-27T18:59:39.285Z,100.00
2019-04-27T19:02:08.450Z,100.00
2019-04-27T19:04:36.996Z,100.00
2019-04-27T19:07:05.275Z,100.00
2019-04-27T19:09:33.555Z,100.00
2019-04-27T19:12:01.846Z,100.00
2019-04-27T19:14:30.141Z,100.00
2019-04-27T19:16:58.863Z,100.00
2019-04-27T19:19:28.034Z,100.00
2019-04-27T19:21:56.363Z,100.00
2019-04-27T19:24:24.651Z,100.00
2019-04-27T19:26:54.545Z,100.00
2019-04-27T19:29:24.469Z,100.00
2019-04-27T19:32:00.386Z,100.00
2019-04-27T19:34:28.788Z,100.00
2019-04-27T19:36:59.079Z,100.00
2019-04-27T19:39:28.541Z,100.00
2019-04-27T19:42:01.450Z,100.00
2019-04-27T19:44:29.010Z,100.00
2019-04-27T19:46:57.543Z,100.00
2019-04-27T19:49:25.809Z,100.00
2019-04-27T19:51:54.109Z,100.00
2019-04-27T19:54:22.383Z,100.00
2019-04-27T19:56:50.662Z,100.00
2019-04-27T19:59:23.300Z,100.00
2019-04-27T20:01:53.312Z,100.00
2019-04-27T20:04:23.194Z,100.00
2019-04-27T20:06:51.452Z,100.00
2019-04-27T20:09:21.370Z,100.00
2019-04-27T20:11:49.646Z,100.00
2019-04-27T20:14:17.922Z,100.00
2019-04-27T20:16:46.203Z,100.00
2019-04-27T20:19:14.859Z,100.00
2019-04-27T20:21:43.146Z,100.00
2019-04-27T20:24:11.844Z,100.00
2019-04-27T20:26:40.264Z,100.00
2019-04-27T20:29:08.525Z,100.00
2019-04-27T20:31:36.774Z,100.00
2019-04-27T20:34:05.151Z,100.00
2019-04-27T20:36:33.423Z,100.00
2019-04-27T20:39:01.704Z,100.00
2019-04-27T20:41:31.831Z,100.00
2019-04-27T20:44:02.195Z,100.00
2019-04-27T20:46:31.193Z,100.00
2019-04-27T20:49:01.185Z,100.00
2019-04-27T20:51:50.267Z,100.00
2019-04-27T20:54:16.125Z,100.00
2019-04-27T20:56:44.462Z,100.00
2019-04-27T20:59:13.460Z,100.00
2019-04-27T21:01:41.743Z,100.00
2019-04-27T21:04:10.969Z,100.00
2019-04-27T21:06:43.574Z,100.00
2019-04-27T21:09:16.506Z,100.00
2019-04-27T21:11:48.648Z,100.00
2019-04-27T21:14:16.980Z,100.00
2019-04-27T21:16:45.316Z,100.00
2019-04-27T21:19:13.569Z,100.00
2019-04-27T21:21:42.741Z,100.00
2019-04-27T21:24:11.190Z,100.00
2019-04-27T21:26:39.449Z,100.00
2019-04-27T21:29:07.716Z,100.00
2019-04-27T21:31:35.975Z,100.00
2019-04-27T21:34:04.260Z,100.00
2019-04-27T21:36:32.519Z,100.00
2019-04-27T21:39:01.457Z,100.00
2019-04-27T21:41:31.175Z,100.00
2019-04-27T21:44:01.299Z,100.00
2019-04-27T21:46:31.651Z,100.00
2019-04-27T21:48:59.762Z,100.00
2019-04-27T21:51:28.032Z,100.00
2019-04-27T21:54:00.637Z,100.00
2019-04-27T21:56:28.917Z,100.00
2019-04-27T21:58:57.176Z,100.00
2019-04-27T22:01:27.859Z,100.00
2019-04-27T22:03:56.109Z,100.00
2019-04-27T22:06:24.524Z,100.00
2019-04-27T22:08:52.799Z,100.00
2019-04-27T22:11:21.899Z,100.00
2019-04-27T22:13:51.208Z,100.00
2019-04-27T22:16:21.286Z,100.00
2019-04-27T22:18:51.338Z,100.00
2019-04-27T22:21:21.457Z,100.00
2019-04-27T22:23:51.500Z,100.00
2019-04-27T22:26:21.347Z,100.00
2019-04-27T22:28:51.928Z,100.00
2019-04-27T22:31:21.165Z,100.00
2019-04-27T22:33:52.540Z,100.00
2019-04-27T22:36:21.207Z,100.00
2019-04-27T22:38:51.428Z,100.00
2019-04-27T22:41:21.469Z,100.00
2019-04-27T22:43:57.011Z,100.00
2019-04-27T22:46:33.083Z,100.00
2019-04-27T22:49:01.855Z,100.00
2019-04-27T22:51:30.329Z,100.00
2019-04-27T22:53:58.615Z,100.00
2019-04-27T22:56:26.891Z,100.00
2019-04-27T22:59:00.496Z,100.00
2019-04-27T23:01:28.434Z,100.00
2019-04-27T23:03:58.321Z,100.00
2019-04-27T23:06:26.596Z,100.00
2019-04-27T23:08:54.886Z,100.00
2019-04-27T23:11:23.127Z,100.00
2019-04-27T23:13:52.534Z,100.00
2019-04-27T23:16:22.465Z,100.00
2019-04-27T23:18:51.516Z,100.00
2019-04-27T23:21:20.893Z,100.00
2019-04-27T23:23:49.350Z,100.00
2019-04-27T23:26:17.619Z,100.00
2019-04-27T23:28:45.891Z,100.00
2019-04-27T23:31:24.396Z,100.00
2019-04-27T23:33:53.217Z,100.00
2019-04-27T23:36:21.684Z,100.00
2019-04-27T23:38:50.879Z,100.00
2019-04-27T23:41:19.409Z,100.00
2019-04-27T23:43:47.725Z,100.00
2019-04-27T23:46:16.074Z,100.00
2019-04-27T23:48:44.339Z,100.00
2019-04-27T23:51:29.329Z,100.00
2019-04-27T23:53:57.597Z,100.00
2019-04-27T23:56:25.869Z,100.00
2019-04-27T23:58:54.116Z,100.00
